Time;durP1;ratioP1;P1;durP2;ratioP2;P2;SDS_P1;SDS_P2;PMS_P1;PMS_P2;Temp;Humidity;BMP_temperature;BMP_pressure;BME280_temperature;BME280_humidity;BME280_pressure;Samples;Min_cycle;Max_cycle;Signal;HPM_P1;HPM_P2
2021/12/05 00:22:30;;;;;;;2.70;0.90;;;;;;;2.89;93.20;94422.69;4819910;29;20068;-45
2021/12/05 00:24:59;;;;;;;2.25;0.80;;;;;;;2.68;92.63;94419.94;4816164;29;20121;-47
2021/12/05 00:27:35;;;;;;;4.68;1.02;;;;;;;2.77;93.04;94419.91;4806795;29;20051;-48
2021/12/05 00:44:37;;;;;;;1.60;0.88;;;;;;;2.50;91.81;94445.09;4815191;29;20050;-45
2021/12/05 01:15:32;;;;;;;2.42;0.90;;;;;;;2.44;88.79;94468.53;4830704;29;20473;-43
2021/12/05 01:18:10;;;;;;;2.35;1.00;;;;;;;2.43;88.68;94477.63;4823053;29;20106;-44
2021/12/05 01:20:46;;;;;;;1.88;1.02;;;;;;;2.05;90.24;94478.28;4818887;29;20173;-46
2021/12/05 01:28:36;;;;;;;2.67;0.85;;;;;;;2.32;89.79;94479.84;4804449;29;20115;-44
2021/12/05 02:31:36;;;;;;;3.55;1.20;;;;;;;2.26;89.74;94504.31;4817696;29;20060;-47
2021/12/05 02:34:17;;;;;;;1.52;0.80;;;;;;;1.96;92.35;94496.16;4814496;29;20066;-44
2021/12/05 02:41:42;;;;;;;1.33;0.57;;;;;;;1.68;93.77;94518.84;4805111;29;20210;-48
2021/12/05 02:46:46;;;;;;;2.13;0.85;;;;;;;1.10;95.80;94510.78;4805161;29;20577;-45
2021/12/05 02:49:15;;;;;;;3.75;0.85;;;;;;;1.39;95.58;94506.84;4818336;29;20510;-46
2021/12/05 02:51:54;;;;;;;1.08;0.77;;;;;;;1.14;98.12;94509.09;4829891;29;20095;-45
2021/12/05 02:54:24;;;;;;;1.90;0.80;;;;;;;1.14;96.67;94509.09;4809674;29;20678;-47
2021/12/05 02:56:52;;;;;;;2.42;1.00;;;;;;;1.46;95.93;94519.72;4808049;29;20098;-45
2021/12/05 03:02:13;;;;;;;1.98;1.00;;;;;;;0.75;99.76;94525.00;4823035;29;20050;-48
2021/12/05 03:04:49;;;;;;;4.43;1.00;;;;;;;0.55;100.00;94523.63;4812788;29;20117;-46
2021/12/05 03:07:25;;;;;;;1.77;1.48;;;;;;;0.51;100.00;94523.47;4805656;29;20077;-45
2021/12/05 03:09:53;;;;;;;1.85;1.10;;;;;;;0.37;100.00;94522.75;4808644;29;20046;-46
2021/12/05 03:12:21;;;;;;;2.47;0.90;;;;;;;0.14;100.00;94525.38;4817206;29;20054;-47
2021/12/05 03:14:49;;;;;;;2.15;1.15;;;;;;;0.27;100.00;94533.63;4817949;29;20057;-45
2021/12/05 03:17:17;;;;;;;2.58;1.10;;;;;;;0.64;100.00;94524.50;4825081;29;20054;-47
2021/12/05 03:19:44;;;;;;;2.95;1.20;;;;;;;1.29;99.25;94526.56;4824630;29;20043;-47
2021/12/05 03:22:13;;;;;;;2.13;1.05;;;;;;;1.70;95.93;94530.78;4822869;29;20111;-46
2021/12/05 03:24:40;;;;;;;4.07;1.10;;;;;;;1.95;93.74;94531.13;4819672;29;20561;-47
2021/12/05 03:27:07;;;;;;;5.07;1.35;;;;;;;1.81;94.50;94548.03;4824972;29;20042;-45
2021/12/05 03:29:36;;;;;;;2.15;1.13;;;;;;;1.27;98.34;94542.06;4824053;29;20584;-46
2021/12/05 03:32:04;;;;;;;2.95;1.55;;;;;;;1.54;96.83;94545.63;4812523;29;20082;-48
2021/12/05 03:34:32;;;;;;;2.47;1.17;;;;;;;1.93;94.44;94536.00;4817289;29;20058;-46
2021/12/05 03:37:03;;;;;;;2.47;1.20;;;;;;;1.94;94.40;94537.56;4814895;29;20049;-46
2021/12/05 03:39:32;;;;;;;4.57;1.40;;;;;;;1.66;94.92;94539.69;4823893;29;20085;-47
2021/12/05 03:41:59;;;;;;;3.03;1.10;;;;;;;1.57;94.73;94537.78;4823084;29;20417;-47
2021/12/05 03:44:29;;;;;;;2.20;1.02;;;;;;;1.61;94.48;94529.97;4815106;29;20050;-50
2021/12/05 03:46:58;;;;;;;1.33;0.93;;;;;;;1.62;93.13;94534.97;4824222;29;20070;-46
2021/12/05 03:49:27;;;;;;;3.60;1.25;;;;;;;1.83;93.50;94547.75;4824614;29;20043;-45
2021/12/05 03:52:03;;;;;;;3.78;1.17;;;;;;;1.37;96.09;94541.03;4818834;29;20077;-45
2021/12/05 03:54:30;;;;;;;4.13;1.23;;;;;;;1.43;94.85;94539.78;4823528;29;20057;-47
2021/12/05 03:56:59;;;;;;;3.88;1.02;;;;;;;1.47;92.98;94540.75;4838426;29;20458;-45
2021/12/05 03:59:29;;;;;;;2.67;0.70;;;;;;;1.68;92.69;94537.50;4824114;29;20565;-47
2021/12/05 04:01:58;;;;;;;2.53;0.85;;;;;;;1.52;93.64;94540.59;4813219;29;20138;-44
2021/12/05 04:04:27;;;;;;;2.45;0.80;;;;;;;1.29;94.08;94536.44;4827977;29;20059;-44
2021/12/05 04:06:56;;;;;;;1.60;0.70;;;;;;;1.33;93.93;94527.53;4822138;29;20484;-46
2021/12/05 04:09:24;;;;;;;4.32;0.73;;;;;;;1.94;90.91;94538.34;4822530;29;20080;-45
2021/12/05 04:11:57;;;;;;;3.97;0.80;;;;;;;1.90;91.26;94533.94;4820603;29;20431;-45
2021/12/05 04:14:34;;;;;;;2.85;0.75;;;;;;;1.47;92.29;94532.75;4808101;29;20568;-42
2021/12/05 04:17:05;;;;;;;3.23;0.50;;;;;;;0.94;93.73;94520.28;4822489;29;20046;-43
2021/12/05 04:19:33;;;;;;;0.80;0.50;;;;;;;1.57;91.50;94524.47;4811094;29;20417;-43
2021/12/05 04:22:03;;;;;;;3.63;0.80;;;;;;;1.60;90.59;94515.06;4805508;29;20050;-42
2021/12/05 04:24:32;;;;;;;1.77;0.60;;;;;;;1.18;93.10;94514.59;4819900;29;20053;-44
2021/12/05 04:27:00;;;;;;;4.30;0.60;;;;;;;1.51;90.94;94511.59;4823774;29;20050;-43
2021/12/05 04:29:27;;;;;;;8.45;2.17;;;;;;;1.54;91.44;94516.31;4821924;29;20133;-45
2021/12/05 04:31:55;;;;;;;3.05;0.73;;;;;;;1.72;90.25;94514.44;4823123;29;20121;-42
2021/12/05 04:34:23;;;;;;;3.22;1.13;;;;;;;1.47;91.25;94516.75;4803822;29;20057;-42
2021/12/05 04:36:56;;;;;;;4.88;1.25;;;;;;;1.61;89.97;94517.41;4824083;29;20046;-43
2021/12/05 04:39:26;;;;;;;2.90;0.85;;;;;;;1.71;89.47;94513.66;4822664;29;20056;-44
2021/12/05 04:41:54;;;;;;;2.97;0.65;;;;;;;1.38;90.90;94518.59;4812627;29;20050;-46
2021/12/05 04:44:22;;;;;;;3.47;0.90;;;;;;;1.05;92.35;94500.28;4815634;29;20077;-43
2021/12/05 04:46:50;;;;;;;2.13;0.90;;;;;;;1.36;91.04;94510.91;4811315;29;20042;-44
2021/12/05 04:49:18;;;;;;;3.05;0.88;;;;;;;1.32;91.41;94509.16;4822207;29;20078;-44
2021/12/05 04:51:45;;;;;;;3.58;0.95;;;;;;;0.89;93.88;94518.53;4813868;29;20084;-46
2021/12/05 04:54:16;;;;;;;7.45;0.93;;;;;;;1.29;92.56;94507.13;4820363;29;20133;-50
2021/12/05 04:56:45;;;;;;;2.58;1.00;;;;;;;1.54;90.87;94506.41;4820089;29;20462;-45
2021/12/05 04:59:19;;;;;;;5.03;0.90;;;;;;;1.53;91.28;94498.75;4805329;29;20065;-44
2021/12/05 05:01:48;;;;;;;2.17;1.00;;;;;;;1.63;90.53;94499.25;4824093;29;20402;-46
2021/12/05 05:04:27;;;;;;;2.60;0.90;;;;;;;1.42;91.92;94490.22;4821468;29;20046;-47
2021/12/05 05:07:02;;;;;;;1.90;0.95;;;;;;;1.82;89.76;94487.50;4805447;29;20386;-43
2021/12/05 05:09:29;;;;;;;3.30;1.00;;;;;;;1.55;90.53;94492.00;4822657;29;20055;-42
2021/12/05 05:11:56;;;;;;;1.83;0.93;;;;;;;1.02;94.45;94500.13;4808615;29;20145;-48
2021/12/05 05:14:23;;;;;;;2.53;0.88;;;;;;;1.30;93.59;94500.69;4810388;29;20051;-46
2021/12/05 05:16:54;;;;;;;3.33;1.15;;;;;;;1.48;91.96;94485.56;4813092;29;20053;-43
2021/12/05 05:19:30;;;;;;;2.10;1.00;;;;;;;1.21;92.74;94489.25;4823934;29;20057;-46
2021/12/05 05:27:42;;;;;;;3.03;1.27;;;;;;;1.61;90.50;94495.31;4817221;29;20044;-45
2021/12/05 05:49:21;;;;;;;2.42;1.20;;;;;;;1.81;89.14;94504.59;4820458;29;20046;-44
2021/12/05 05:51:48;;;;;;;5.55;1.20;;;;;;;1.71;89.37;94508.34;4822691;29;20047;-43
2021/12/05 05:54:16;;;;;;;3.30;1.23;;;;;;;1.73;89.37;94513.38;4822060;29;20146;-44
2021/12/05 05:56:45;;;;;;;2.38;1.30;;;;;;;1.69;89.74;94504.41;4812218;29;20047;-50
2021/12/05 05:59:23;;;;;;;3.13;1.30;;;;;;;1.72;89.37;94509.13;4819505;29;20066;-43
2021/12/05 06:04:18;;;;;;;3.65;1.17;;;;;;;1.78;89.26;94505.22;4809001;29;20481;-43
2021/12/05 06:06:50;;;;;;;3.75;1.33;;;;;;;1.67;89.70;94502.06;4804985;29;20525;-46
2021/12/05 06:09:18;;;;;;;3.28;1.30;;;;;;;1.87;88.87;94503.34;4819853;29;20133;-43
2021/12/05 06:11:45;;;;;;;3.38;1.75;;;;;;;2.05;88.00;94506.84;4815956;29;20126;-46
2021/12/05 06:14:12;;;;;;;5.10;1.38;;;;;;;1.80;88.65;94514.47;4819984;29;20053;-46
2021/12/05 06:16:39;;;;;;;4.93;1.35;;;;;;;1.63;89.26;94504.56;4822929;29;20089;-45
2021/12/05 06:19:06;;;;;;;2.47;1.13;;;;;;;1.73;89.19;94508.03;4820831;29;20057;-44
2021/12/05 06:21:33;;;;;;;2.35;1.20;;;;;;;1.67;89.24;94515.41;4804801;29;20050;-45
2021/12/05 06:24:00;;;;;;;4.45;1.45;;;;;;;1.56;89.36;94514.91;4817337;29;20054;-46
2021/12/05 06:26:27;;;;;;;3.92;1.10;;;;;;;1.52;89.55;94519.25;4821232;29;20137;-45
2021/12/05 06:29:10;;;;;;;4.10;1.33;;;;;;;1.50;89.47;94504.69;4821698;29;20052;-46
2021/12/05 06:32:31;;;;;;;5.10;1.40;;;;;;;1.53;89.67;94523.53;4822817;29;20476;-47
2021/12/05 06:43:04;;;;;;;4.85;1.60;;;;;;;1.65;88.78;94522.91;4819071;29;20051;-43
2021/12/05 06:48:17;;;;;;;4.30;1.20;;;;;;;1.65;89.00;94528.25;4825993;29;20061;-43
2021/12/05 06:50:44;;;;;;;5.05;1.42;;;;;;;1.59;89.14;94529.47;4817603;29;20045;-47
2021/12/05 06:53:11;;;;;;;4.88;1.25;;;;;;;1.70;89.09;94528.09;4817781;29;20501;-43
2021/12/05 06:55:38;;;;;;;3.97;1.30;;;;;;;1.76;88.60;94524.22;4823277;29;20056;-48
2021/12/05 06:58:10;;;;;;;3.30;1.52;;;;;;;1.79;88.41;94538.81;4826156;29;20057;-47
2021/12/05 07:00:37;;;;;;;3.00;1.10;;;;;;;1.74;88.48;94522.94;4824380;29;20042;-46
2021/12/05 07:03:07;;;;;;;3.90;1.20;;;;;;;1.66;88.60;94532.50;4820011;29;20055;-47
2021/12/05 07:08:13;;;;;;;4.18;1.20;;;;;;;1.90;88.13;94536.63;4825607;29;20578;-44
2021/12/05 07:10:56;;;;;;;3.35;1.30;;;;;;;1.83;88.14;94535.19;4808566;29;20057;-46
2021/12/05 07:16:12;;;;;;;2.58;1.25;;;;;;;1.67;88.00;94534.06;4825499;29;20038;-43
2021/12/05 07:18:54;;;;;;;8.32;1.65;;;;;;;1.60;88.33;94531.84;4821956;29;20072;-45
2021/12/05 07:40:22;;;;;;;5.53;1.50;;;;;;;1.62;88.04;94540.31;4818474;29;20052;-47
2021/12/05 07:40:31;;;;;;;5.03;1.73;;;;;;;1.76;87.14;94507.44;4821783;29;20416;-43
2021/12/05 07:43:05;;;;;;;3.80;1.20;;;;;;;1.90;87.71;94524.06;4819345;29;20047;-42
2021/12/05 07:45:46;;;;;;;4.55;1.35;;;;;;;2.05;87.20;94515.63;4810281;29;20042;-44
2021/12/05 07:48:25;;;;;;;5.55;1.50;;;;;;;2.05;86.69;94520.19;4820444;29;20046;-43
2021/12/05 07:51:10;;;;;;;7.75;2.25;;;;;;;2.14;87.02;94517.50;4824171;29;20050;-43
2021/12/05 07:53:54;;;;;;;4.70;1.40;;;;;;;2.18;86.28;94516.56;4820024;29;20055;-44
2021/12/05 07:56:35;;;;;;;3.78;1.20;;;;;;;2.23;86.36;94518.28;4816372;29;20066;-46
2021/12/05 08:15:40;;;;;;;2.60;1.17;;;;;;;1.96;86.97;94522.81;4814119;29;20054;-46
2021/12/05 08:18:07;;;;;;;3.65;1.30;;;;;;;1.78;87.81;94524.66;4818837;29;20043;-45
2021/12/05 08:20:39;;;;;;;3.13;1.10;;;;;;;2.24;86.37;94520.66;4818471;29;20046;-47
2021/12/05 08:23:07;;;;;;;4.97;1.20;;;;;;;1.87;87.53;94517.47;4810181;29;21485;-46
2021/12/05 08:25:39;;;;;;;3.15;1.10;;;;;;;1.81;87.40;94523.25;4807702;29;20055;-48
2021/12/05 08:30:49;;;;;;;5.20;1.40;;;;;;;2.23;86.40;94516.41;4822307;29;20114;-49
2021/12/05 08:34:06;;;;;;;2.33;1.23;;;;;;;2.37;85.37;94518.91;4819139;29;20130;-44
2021/12/05 09:20:01;;;;;;;4.53;1.10;;;;;;;2.78;82.89;94526.41;4822187;29;20141;-44
2021/12/05 09:31:05;;;;;;;4.68;1.63;;;;;;;3.14;81.12;94548.50;4821164;29;20054;-47
2021/12/05 10:15:15;;;;;;;4.18;0.90;;;;;;;3.47;77.87;94530.78;4813995;29;20103;-46
2021/12/05 10:34:23;;;;;;;4.22;0.90;;;;;;;3.42;78.14;94522.16;4813879;29;20507;-48
2021/12/05 10:37:06;;;;;;;2.55;1.00;;;;;;;2.74;79.28;94517.47;4811576;29;20572;-48
2021/12/05 10:39:33;;;;;;;2.55;1.08;;;;;;;2.55;80.40;94515.13;4816873;29;20048;-45
2021/12/05 10:42:14;;;;;;;3.83;1.25;;;;;;;2.41;80.79;94517.19;4818232;29;20170;-48
2021/12/05 10:44:45;;;;;;;3.70;1.10;;;;;;;2.43;80.42;94514.97;4804379;29;20051;-46
2021/12/05 10:47:12;;;;;;;2.90;1.10;;;;;;;2.46;80.98;94522.38;4820802;29;20682;-49
2021/12/05 10:49:40;;;;;;;3.65;1.17;;;;;;;2.40;80.77;94510.28;4822103;29;20088;-45
2021/12/05 10:52:13;;;;;;;2.50;1.00;;;;;;;2.45;80.24;94515.47;4824193;29;20115;-45
2021/12/05 10:54:40;;;;;;;3.38;1.80;;;;;;;2.64;80.88;94512.47;4803728;29;20080;-45
2021/12/05 10:57:09;;;;;;;3.35;1.30;;;;;;;2.55;81.68;94509.03;4814039;29;20051;-45
2021/12/05 10:59:40;;;;;;;4.65;1.20;;;;;;;2.59;81.18;94512.63;4818549;29;20042;-47
2021/12/05 11:02:12;;;;;;;6.05;1.20;;;;;;;3.55;78.43;94520.38;4822441;29;20050;-47
2021/12/05 11:04:40;;;;;;;2.25;1.05;;;;;;;3.74;76.55;94513.53;4807068;29;20137;-46
2021/12/05 11:07:18;;;;;;;6.53;1.70;;;;;;;3.36;76.77;94516.22;4804219;29;20051;-43
2021/12/05 11:09:47;;;;;;;2.53;0.90;;;;;;;3.05;77.42;94513.78;4813325;29;20138;-43
2021/12/05 11:12:14;;;;;;;3.25;1.10;;;;;;;3.17;79.20;94510.47;4807391;29;20061;-48
2021/12/05 11:14:48;;;;;;;2.20;1.00;;;;;;;2.76;78.75;94511.81;4821505;29;20078;-44
2021/12/05 11:17:19;;;;;;;4.15;1.35;;;;;;;3.19;78.46;94513.59;4806309;29;20466;-46
2021/12/05 11:19:54;;;;;;;3.08;0.90;;;;;;;3.62;76.89;94516.09;4812037;29;20074;-45
2021/12/05 11:22:23;;;;;;;7.35;1.77;;;;;;;3.05;77.32;94521.81;4853412;23;20492;-46
2021/12/05 11:25:04;;;;;;;2.03;0.88;;;;;;;2.72;76.66;94513.56;4849526;29;20117;-47
2021/12/05 11:27:43;;;;;;;6.30;1.35;;;;;;;3.01;77.67;94512.84;4846008;29;20046;-47
2021/12/05 11:30:33;;;;;;;5.28;1.08;;;;;;;2.87;79.31;94513.06;4838313;29;20065;-48
2021/12/05 11:33:02;;;;;;;1.80;0.90;;;;;;;2.78;78.63;94520.28;4835254;29;20052;-47
2021/12/05 11:35:32;;;;;;;3.75;1.02;;;;;;;2.84;76.32;94513.69;4836612;29;20137;-46
2021/12/05 11:38:32;;;;;;;2.38;0.85;;;;;;;2.91;76.82;94513.97;4825113;29;20042;-45
2021/12/05 11:41:03;;;;;;;2.47;0.90;;;;;;;2.79;76.41;94519.19;4833961;29;20057;-48
2021/12/05 11:43:37;;;;;;;4.88;1.13;;;;;;;2.88;77.74;94513.84;4841198;29;20624;-46
2021/12/05 11:46:13;;;;;;;4.50;1.20;;;;;;;3.33;76.10;94519.53;4841132;29;20046;-47
2021/12/05 11:48:46;;;;;;;4.75;1.50;;;;;;;3.56;76.00;94521.94;4837101;29;20046;-45
2021/12/05 11:51:38;;;;;;;4.50;1.15;;;;;;;3.12;75.87;94514.09;4840185;29;20409;-46
2021/12/05 11:54:14;;;;;;;1.67;0.80;;;;;;;3.03;75.44;94516.78;4839071;29;20079;-47
2021/12/05 11:56:50;;;;;;;5.95;1.40;;;;;;;2.97;75.58;94518.06;4825599;29;20062;-46
2021/12/05 11:59:28;;;;;;;3.50;1.10;;;;;;;3.46;74.03;94517.75;4828080;29;20061;-46
2021/12/05 12:02:02;;;;;;;3.72;1.17;;;;;;;3.74;73.46;94518.88;4832450;29;20076;-47
2021/12/05 12:04:50;;;;;;;3.00;1.23;;;;;;;3.94;72.66;94508.53;4832578;29;20409;-46
2021/12/05 12:07:26;;;;;;;5.53;1.30;;;;;;;4.02;73.44;94501.53;4830475;29;20042;-47
2021/12/05 12:09:58;;;;;;;3.67;1.23;;;;;;;3.62;73.56;94504.63;4822572;29;20056;-46
2021/12/05 12:12:26;;;;;;;3.80;1.17;;;;;;;3.00;75.74;94506.75;4827960;29;20058;-45
2021/12/05 12:14:54;;;;;;;6.82;1.13;;;;;;;2.97;73.83;94512.72;4826833;29;20133;-47
2021/12/05 12:17:22;;;;;;;3.80;0.93;;;;;;;2.84;73.46;94508.34;4826491;29;20099;-45
2021/12/05 12:19:51;;;;;;;4.85;1.27;;;;;;;3.46;74.61;94507.81;4833346;29;20062;-46
2021/12/05 12:22:21;;;;;;;2.50;0.93;;;;;;;3.42;74.42;94511.47;4826549;29;20133;-46
2021/12/05 12:24:55;;;;;;;6.38;1.20;;;;;;;3.06;77.19;94510.03;4833338;29;20103;-46
2021/12/05 12:27:23;;;;;;;4.00;1.20;;;;;;;3.17;74.30;94499.78;4836722;29;20046;-48
2021/12/05 12:29:52;;;;;;;2.15;0.90;;;;;;;2.84;74.43;94502.22;4830055;29;20038;-46
2021/12/05 12:32:24;;;;;;;4.97;1.10;;;;;;;2.81;75.91;94503.63;4834723;29;20506;-46
2021/12/05 12:35:09;;;;;;;5.35;1.45;;;;;;;2.78;75.36;94493.59;4828138;29;20062;-47
2021/12/05 12:38:00;;;;;;;6.45;1.10;;;;;;;2.87;75.79;94499.69;4831686;29;20061;-46
2021/12/05 12:40:49;;;;;;;5.10;1.48;;;;;;;2.75;74.24;94505.69;4833000;29;20053;-49
2021/12/05 12:43:39;;;;;;;3.63;0.90;;;;;;;3.42;73.72;94501.56;4833419;29;20420;-47
2021/12/05 12:46:20;;;;;;;2.53;1.10;;;;;;;3.05;74.06;94497.75;4832188;29;20054;-49
2021/12/05 12:48:51;;;;;;;3.10;1.10;;;;;;;3.10;74.26;94505.59;4842024;29;20045;-47
2021/12/05 12:51:28;;;;;;;5.30;1.17;;;;;;;4.08;72.25;94505.59;4832529;29;20504;-46
2021/12/05 12:53:58;;;;;;;2.20;1.10;;;;;;;3.68;71.45;94497.97;4834621;29;20054;-46
2021/12/05 12:56:25;;;;;;;5.82;1.30;;;;;;;3.24;73.51;94502.72;4829200;29;20509;-46
2021/12/05 12:59:00;;;;;;;3.40;1.20;;;;;;;3.09;74.64;94500.56;4827701;29;20110;-46
2021/12/05 13:10:18;;;;;;;4.10;1.20;;;;;;;2.79;74.90;94500.50;4845636;29;20047;-46
2021/12/05 13:12:47;;;;;;;5.18;1.25;;;;;;;3.38;75.29;94499.84;4835828;29;20114;-48
2021/12/05 13:15:25;;;;;;;3.97;2.20;;;;;;;3.58;72.88;94499.13;4836421;29;20042;-51
2021/12/05 13:17:55;;;;;;;4.63;1.25;;;;;;;3.10;74.01;94504.81;4832811;29;20046;-52
2021/12/05 13:20:52;;;;;;;5.22;1.20;;;;;;;2.85;74.17;94503.78;4826974;29;20130;-52
2021/12/05 13:23:28;;;;;;;4.65;1.13;;;;;;;2.86;74.65;94502.69;4827885;29;20142;-51
2021/12/05 13:26:13;;;;;;;4.95;1.10;;;;;;;2.95;74.64;94501.56;4824605;29;20458;-48
2021/12/05 13:28:43;;;;;;;4.18;1.33;;;;;;;3.25;74.99;94498.94;4836280;29;20046;-47
2021/12/05 13:31:28;;;;;;;2.70;1.23;;;;;;;3.11;75.14;94503.72;4824586;29;20140;-46
2021/12/05 13:34:20;;;;;;;3.92;1.25;;;;;;;3.00;74.98;94504.06;4822491;29;20107;-48
2021/12/05 13:37:06;;;;;;;3.90;1.67;;;;;;;3.59;73.93;94500.69;4828373;29;20051;-49
2021/12/05 13:39:52;;;;;;;5.43;1.52;;;;;;;3.84;72.29;94509.69;4833138;29;20603;-51
2021/12/05 13:42:34;;;;;;;4.05;1.30;;;;;;;3.56;72.73;94516.59;4827794;29;20553;-52
2021/12/05 13:45:06;;;;;;;4.78;1.40;;;;;;;3.99;72.84;94514.44;4846009;29;20501;-53
2021/12/05 13:47:47;;;;;;;4.18;1.58;;;;;;;3.46;70.89;94517.75;4823677;29;20416;-49
2021/12/05 13:50:27;;;;;;;4.85;1.17;;;;;;;4.01;71.79;94510.69;4830330;29;20046;-50
2021/12/05 13:52:59;;;;;;;4.82;1.38;;;;;;;3.97;69.04;94513.22;4845089;29;20042;-52
2021/12/05 13:55:59;;;;;;;3.17;1.40;;;;;;;3.16;73.14;94523.03;4832481;29;20067;-52
2021/12/05 13:58:32;;;;;;;6.43;1.58;;;;;;;2.99;73.34;94526.56;4828817;29;20042;-52
2021/12/05 14:01:15;;;;;;;3.15;1.40;;;;;;;2.93;73.23;94522.47;4834195;29;20053;-48
2021/12/05 14:04:05;;;;;;;6.57;3.15;;;;;;;3.02;73.35;94525.09;4842916;29;20049;-51
2021/12/05 14:06:37;;;;;;;6.28;1.70;;;;;;;3.04;73.14;94522.91;4834090;29;20465;-51
2021/12/05 14:09:18;;;;;;;4.18;1.45;;;;;;;4.07;70.68;94515.53;4834474;29;20587;-55
2021/12/05 14:11:53;;;;;;;4.85;1.25;;;;;;;3.80;70.18;94510.63;4836675;29;20049;-49
2021/12/05 14:14:35;;;;;;;4.35;2.13;;;;;;;3.91;70.53;94522.56;4827609;29;20125;-46
2021/12/05 14:17:09;;;;;;;6.43;1.80;;;;;;;3.98;70.64;94522.81;4836134;29;20110;-49
2021/12/05 14:19:38;;;;;;;3.63;1.20;;;;;;;3.27;73.55;94520.78;4842102;29;20129;-50
2021/12/05 14:22:09;;;;;;;5.15;1.45;;;;;;;3.92;72.41;94522.22;4833788;29;20073;-52
2021/12/05 14:24:40;;;;;;;6.90;1.73;;;;;;;4.23;71.97;94523.75;4827304;29;20050;-48
2021/12/05 14:27:11;;;;;;;5.43;1.50;;;;;;;4.48;70.99;94518.53;4822457;29;20046;-55
2021/12/05 14:29:40;;;;;;;3.92;1.23;;;;;;;4.53;70.57;94521.78;4835366;29;20442;-52
2021/12/05 14:32:20;;;;;;;6.20;1.60;;;;;;;4.39;71.26;94529.31;4825884;29;20050;-53
2021/12/05 14:34:54;;;;;;;5.50;2.20;;;;;;;4.37;72.09;94524.28;4820563;29;20089;-51
2021/12/05 14:37:22;;;;;;;;;;;;;;;4.54;71.80;94533.28;4823496;29;20402;-48
2021/12/05 14:39:52;;;;;;;5.15;1.77;;;;;;;4.29;73.24;94535.84;4822752;29;19964;-52
2021/12/05 14:42:25;;;;;;;3.83;1.52;;;;;;;4.04;74.48;94529.56;4830275;29;20074;-49
2021/12/05 14:44:57;;;;;;;6.07;2.00;;;;;;;4.14;74.68;94531.84;4821355;29;20056;-51
2021/12/05 14:47:27;;;;;;;6.20;1.70;;;;;;;3.83;75.73;94537.53;4822470;29;20061;-54
2021/12/05 14:50:10;;;;;;;6.15;2.05;;;;;;;3.54;76.93;94537.53;4832601;29;20133;-53
2021/12/05 14:52:39;;;;;;;9.70;1.70;;;;;;;3.63;76.91;94532.91;4825866;29;20129;-54
2021/12/05 14:55:10;;;;;;;4.22;1.90;;;;;;;3.84;76.23;94533.00;4833674;29;20065;-54
2021/12/05 14:57:44;;;;;;;5.15;1.77;;;;;;;3.81;76.48;94537.09;4841303;29;20077;-54
2021/12/05 15:00:14;;;;;;;4.82;2.03;;;;;;;3.65;77.23;94541.41;4840843;29;20057;-54
2021/12/05 15:02:41;;;;;;;5.38;1.95;;;;;;;3.64;77.56;94545.19;4840700;29;20050;-55
2021/12/05 15:05:11;;;;;;;6.10;2.40;;;;;;;3.64;77.60;94551.34;4835287;29;20128;-54
2021/12/05 15:07:39;;;;;;;5.13;2.33;;;;;;;3.74;77.71;94561.66;4836547;29;20045;-54
2021/12/05 15:10:07;;;;;;;4.53;2.05;;;;;;;3.44;79.23;94558.16;4843276;29;20077;-54
2021/12/05 15:12:35;;;;;;;3.80;1.60;;;;;;;3.53;79.54;94565.38;4843421;29;20061;-51
2021/12/05 15:15:09;;;;;;;3.20;1.70;;;;;;;3.50;79.62;94562.22;4829367;29;20057;-53
2021/12/05 15:17:39;;;;;;;5.40;2.00;;;;;;;3.60;78.91;94563.75;4825486;29;20054;-53
2021/12/05 15:20:14;;;;;;;5.53;2.00;;;;;;;3.38;80.16;94570.16;4825642;29;20121;-52
2021/12/05 15:22:45;;;;;;;5.43;1.83;;;;;;;3.25;80.81;94571.09;4834974;29;20054;-54
2021/12/05 15:25:16;;;;;;;3.70;1.77;;;;;;;3.25;80.94;94573.78;4841061;29;20371;-53
2021/12/05 15:27:45;;;;;;;7.57;1.88;;;;;;;3.16;81.13;94578.38;4844232;29;20045;-53
2021/12/05 15:30:31;;;;;;;5.05;1.92;;;;;;;3.14;81.34;94580.59;4843392;29;20041;-53
2021/12/05 15:33:06;;;;;;;3.55;1.77;;;;;;;3.09;81.44;94584.22;4840871;29;20111;-52
2021/12/05 15:35:34;;;;;;;4.43;1.88;;;;;;;3.11;81.61;94583.88;4824166;29;20085;-54
2021/12/05 15:38:05;;;;;;;3.35;1.70;;;;;;;3.28;80.89;94589.19;4825456;29;20504;-52
2021/12/05 15:40:35;;;;;;;3.72;1.90;;;;;;;3.05;82.08;94585.94;4840199;29;20053;-53
2021/12/05 15:43:11;;;;;;;4.97;1.80;;;;;;;2.91;82.89;94582.66;4837250;29;20046;-53
2021/12/05 15:45:40;;;;;;;4.22;2.03;;;;;;;2.83;83.38;94586.13;4825094;29;20110;-54
2021/12/05 15:48:08;;;;;;;6.32;2.58;;;;;;;3.04;82.41;94592.38;4825315;29;20133;-55
2021/12/05 15:50:38;;;;;;;5.10;2.22;;;;;;;2.95;82.93;94588.94;4824926;29;20068;-54
2021/12/05 15:53:12;;;;;;;5.07;2.92;;;;;;;2.62;84.66;94592.09;4833570;29;20050;-54
2021/12/05 15:55:48;;;;;;;5.93;1.98;;;;;;;2.63;84.67;94590.22;4838502;29;20522;-52
2021/12/05 15:58:44;;;;;;;4.68;2.08;;;;;;;2.77;83.97;94593.53;4842959;29;20049;-54
2021/12/05 16:01:21;;;;;;;5.18;2.22;;;;;;;2.54;84.91;94591.00;4843062;29;20588;-54
2021/12/05 16:03:50;;;;;;;4.28;2.10;;;;;;;2.58;84.85;94599.19;4835760;29;20050;-52
2021/12/05 16:06:20;;;;;;;4.85;2.25;;;;;;;2.87;84.04;94609.22;4837258;29;20129;-54
2021/12/05 16:08:54;;;;;;;4.10;2.53;;;;;;;2.98;83.21;94602.44;4843558;29;20137;-51
2021/12/05 16:11:22;;;;;;;4.47;2.58;;;;;;;3.09;83.33;94610.94;4843501;29;20073;-53
2021/12/05 16:13:52;;;;;;;6.03;2.40;;;;;;;2.86;85.15;94621.03;4830949;29;20057;-53
2021/12/05 16:16:25;;;;;;;5.53;2.33;;;;;;;3.04;84.43;94616.44;4825207;29;20042;-51
2021/12/05 16:18:54;;;;;;;;;;;;;;;3.06;83.33;94616.13;4824121;29;20069;-53
2021/12/05 16:21:27;;;;;;;6.68;2.60;;;;;;;2.74;85.56;94628.88;4824904;29;19925;-49
2021/12/05 16:24:02;;;;;;;3.75;2.30;;;;;;;2.94;83.61;94630.91;4824730;29;20050;-51
2021/12/05 16:26:30;;;;;;;5.57;2.50;;;;;;;2.96;83.88;94635.94;4840483;29;20062;-54
2021/12/05 16:29:04;;;;;;;7.07;2.65;;;;;;;2.87;83.47;94635.16;4826894;29;20054;-53
2021/12/05 16:31:36;;;;;;;5.90;2.70;;;;;;;2.76;83.80;94632.00;4827164;29;20057;-50
2021/12/05 16:34:17;;;;;;;5.97;2.80;;;;;;;2.68;84.23;94632.78;4840065;29;20169;-51
2021/12/05 16:37:06;;;;;;;7.53;3.00;;;;;;;2.57;84.23;94635.00;4843077;29;20123;-53
2021/12/05 16:39:35;;;;;;;5.72;2.67;;;;;;;2.24;85.84;94639.94;4826396;29;20046;-50
2021/12/05 16:42:21;;;;;;;5.95;2.70;;;;;;;2.29;85.97;94648.59;4837172;29;20050;-53
2021/12/05 16:44:50;;;;;;;7.60;3.00;;;;;;;2.28;86.02;94643.59;4822215;29;20054;-50
2021/12/05 16:47:19;;;;;;;6.55;3.20;;;;;;;2.32;86.43;94641.84;4796630;29;20058;-54
2021/12/05 16:49:51;;;;;;;4.38;2.95;;;;;;;2.31;85.99;94641.06;4823905;29;20123;-51
2021/12/05 16:52:22;;;;;;;8.27;3.00;;;;;;;2.49;85.21;94647.22;4837909;29;20041;-49
2021/12/05 16:54:58;;;;;;;10.40;4.03;;;;;;;2.42;85.16;94646.13;4845338;29;20065;-51
2021/12/05 16:57:31;;;;;;;6.85;3.20;;;;;;;2.16;86.64;94649.50;4824346;29;20138;-52
2021/12/05 17:00:00;;;;;;;7.32;3.28;;;;;;;2.27;86.42;94640.09;4822516;29;20588;-53
2021/12/05 17:02:27;;;;;;;5.40;3.28;;;;;;;2.26;86.45;94648.44;4837767;29;20058;-51
2021/12/05 17:05:02;;;;;;;7.95;3.03;;;;;;;2.10;87.23;94645.41;4815805;29;20050;-50
2021/12/05 17:07:41;;;;;;;4.15;2.80;;;;;;;2.08;87.38;94643.06;4824805;29;20137;-51
2021/12/05 17:10:48;;;;;;;5.10;3.15;;;;;;;2.07;87.07;94641.47;4841270;29;20137;-49
2021/12/05 17:13:36;;;;;;;5.10;3.00;;;;;;;2.12;87.17;94651.22;4824055;29;20401;-53
2021/12/05 17:16:06;;;;;;;6.00;3.25;;;;;;;1.94;88.02;94662.94;4822319;29;20604;-51
2021/12/05 17:18:58;;;;;;;6.38;3.22;;;;;;;1.85;88.94;94660.22;4823053;29;20099;-51
2021/12/05 17:21:33;;;;;;;4.88;3.20;;;;;;;1.81;89.10;94653.94;4824501;29;20476;-50
2021/12/05 17:24:12;;;;;;;6.65;3.30;;;;;;;1.99;88.57;94655.56;4845234;24;20064;-55
2021/12/05 17:27:07;;;;;;;6.20;3.60;;;;;;;1.86;89.13;94656.47;4857226;29;20534;-53
2021/12/05 17:29:38;;;;;;;7.45;3.47;;;;;;;1.84;88.70;94658.66;4860348;29;20728;-52
2021/12/05 17:32:11;;;;;;;5.50;3.35;;;;;;;2.00;88.29;94657.16;4859227;29;20048;-55
2021/12/05 17:34:42;;;;;;;;;;;;;;;2.00;88.17;94661.69;4840653;29;20050;-50
2021/12/05 17:37:13;;;;;;;4.95;2.95;;;;;;;1.94;88.55;94663.72;4823608;29;20417;-52
2021/12/05 17:39:46;;;;;;;5.43;3.17;;;;;;;1.83;89.39;94667.75;4824680;29;20083;-53
2021/12/05 17:42:19;;;;;;;5.13;2.63;;;;;;;1.94;89.27;94658.38;4839544;29;20066;-56
2021/12/05 17:44:50;;;;;;;4.13;2.65;;;;;;;1.81;89.50;94669.94;4822529;29;20058;-52
2021/12/05 17:47:18;;;;;;;4.40;2.50;;;;;;;1.71;90.22;94670.19;4823107;29;20050;-56
2021/12/05 17:49:49;;;;;;;4.43;2.25;;;;;;;2.05;88.41;94669.56;4823111;29;20047;-55